sensor_id;sensor_type;location;lat;lon;timestamp;temperature;humidity
65766;SHT31;52915;53.718;19.946;2023-03-23T00:04:40;11.58;74.36
65766;SHT31;52915;53.718;19.946;2023-03-23T00:09:44;11.53;74.40
65766;SHT31;52915;53.718;19.946;2023-03-23T00:14:47;11.51;74.53
65766;SHT31;52915;53.718;19.946;2023-03-23T00:19:50;11.47;74.54
65766;SHT31;52915;53.718;19.946;2023-03-23T00:24:53;11.46;74.57
65766;SHT31;52915;53.718;19.946;2023-03-23T00:29:56;11.43;74.54
65766;SHT31;52915;53.718;19.946;2023-03-23T00:34:59;11.40;74.54
65766;SHT31;52915;53.718;19.946;2023-03-23T00:40:02;11.35;74.56
65766;SHT31;52915;53.718;19.946;2023-03-23T00:45:10;11.38;74.51
65766;SHT31;52915;53.718;19.946;2023-03-23T00:50:13;11.38;74.46
65766;SHT31;52915;53.718;19.946;2023-03-23T00:55:16;11.41;74.36
65766;SHT31;52915;53.718;19.946;2023-03-23T01:00:19;11.45;74.21
65766;SHT31;52915;53.718;19.946;2023-03-23T01:05:22;11.44;74.25
65766;SHT31;52915;53.718;19.946;2023-03-23T01:10:25;11.43;74.23
65766;SHT31;52915;53.718;19.946;2023-03-23T01:15:34;11.40;74.04
65766;SHT31;52915;53.718;19.946;2023-03-23T01:20:37;11.42;73.92
65766;SHT31;52915;53.718;19.946;2023-03-23T01:25:40;11.44;73.79
65766;SHT31;52915;53.718;19.946;2023-03-23T01:30:43;11.45;73.68
65766;SHT31;52915;53.718;19.946;2023-03-23T01:35:46;11.45;73.65
65766;SHT31;52915;53.718;19.946;2023-03-23T01:40:49;11.47;73.52
65766;SHT31;52915;53.718;19.946;2023-03-23T01:45:51;11.44;73.54
65766;SHT31;52915;53.718;19.946;2023-03-23T01:56:19;11.46;73.43
65766;SHT31;52915;53.718;19.946;2023-03-23T02:01:27;11.46;73.44
65766;SHT31;52915;53.718;19.946;2023-03-23T02:06:29;11.47;73.46
65766;SHT31;52915;53.718;19.946;2023-03-23T02:11:32;11.43;73.49
65766;SHT31;52915;53.718;19.946;2023-03-23T02:16:53;11.37;73.60
65766;SHT31;52915;53.718;19.946;2023-03-23T02:38:42;10.97;74.46
65766;SHT31;52915;53.718;19.946;2023-03-23T02:43:57;10.94;74.61
65766;SHT31;52915;53.718;19.946;2023-03-23T02:49:04;10.91;74.73
65766;SHT31;52915;53.718;19.946;2023-03-23T02:54:13;10.89;74.76
65766;SHT31;52915;53.718;19.946;2023-03-23T02:59:19;10.86;74.81
65766;SHT31;52915;53.718;19.946;2023-03-23T03:04:23;10.80;74.96
65766;SHT31;52915;53.718;19.946;2023-03-23T03:09:40;10.74;75.07
65766;SHT31;52915;53.718;19.946;2023-03-23T03:14:51;10.67;75.18
65766;SHT31;52915;53.718;19.946;2023-03-23T03:20:11;10.56;75.49
65766;SHT31;52915;53.718;19.946;2023-03-23T03:25:16;10.52;75.67
65766;SHT31;52915;53.718;19.946;2023-03-23T03:30:21;10.46;75.86
65766;SHT31;52915;53.718;19.946;2023-03-23T03:35:30;10.41;76.00
65766;SHT31;52915;53.718;19.946;2023-03-23T03:40:39;10.48;75.85
65766;SHT31;52915;53.718;19.946;2023-03-23T03:45:41;10.53;75.74
65766;SHT31;52915;53.718;19.946;2023-03-23T03:50:44;10.53;75.66
65766;SHT31;52915;53.718;19.946;2023-03-23T03:55:47;10.50;75.68
65766;SHT31;52915;53.718;19.946;2023-03-23T04:00:51;10.46;75.68
65766;SHT31;52915;53.718;19.946;2023-03-23T04:05:55;10.35;75.81
65766;SHT31;52915;53.718;19.946;2023-03-23T04:10:58;10.22;76.07
65766;SHT31;52915;53.718;19.946;2023-03-23T04:16:00;10.11;76.31
65766;SHT31;52915;53.718;19.946;2023-03-23T04:21:04;10.08;76.41
65766;SHT31;52915;53.718;19.946;2023-03-23T04:26:09;10.05;76.47
65766;SHT31;52915;53.718;19.946;2023-03-23T04:31:14;10.00;76.57
65766;SHT31;52915;53.718;19.946;2023-03-23T04:36:17;9.90;76.79
65766;SHT31;52915;53.718;19.946;2023-03-23T04:41:21;9.76;77.43
65766;SHT31;52915;53.718;19.946;2023-03-23T04:46:26;9.71;77.60
65766;SHT31;52915;53.718;19.946;2023-03-23T04:51:31;9.66;77.75
65766;SHT31;52915;53.718;19.946;2023-03-23T04:56:33;9.62;77.78
65766;SHT31;52915;53.718;19.946;2023-03-23T05:01:39;9.56;77.93
65766;SHT31;52915;53.718;19.946;2023-03-23T05:06:47;9.53;78.03
65766;SHT31;52915;53.718;19.946;2023-03-23T05:11:51;9.61;77.79
65766;SHT31;52915;53.718;19.946;2023-03-23T05:16:53;9.70;77.59
65766;SHT31;52915;53.718;19.946;2023-03-23T05:21:59;9.80;77.45
65766;SHT31;52915;53.718;19.946;2023-03-23T05:27:05;9.80;77.49
65766;SHT31;52915;53.718;19.946;2023-03-23T05:32:10;9.84;77.54
65766;SHT31;52915;53.718;19.946;2023-03-23T05:37:12;9.89;77.36
65766;SHT31;52915;53.718;19.946;2023-03-23T05:42:16;9.91;77.44
65766;SHT31;52915;53.718;19.946;2023-03-23T05:47:24;10.02;77.22
65766;SHT31;52915;53.718;19.946;2023-03-23T05:52:31;10.12;77.15
65766;SHT31;52915;53.718;19.946;2023-03-23T05:57:37;10.37;76.64
65766;SHT31;52915;53.718;19.946;2023-03-23T06:02:40;10.60;76.05
65766;SHT31;52915;53.718;19.946;2023-03-23T06:07:49;10.76;75.75
65766;SHT31;52915;53.718;19.946;2023-03-23T06:12:55;10.77;75.27
65766;SHT31;52915;53.718;19.946;2023-03-23T06:17:59;10.96;74.93
65766;SHT31;52915;53.718;19.946;2023-03-23T06:23:04;11.24;74.18
65766;SHT31;52915;53.718;19.946;2023-03-23T06:28:07;11.48;73.51
65766;SHT31;52915;53.718;19.946;2023-03-23T06:33:11;11.67;72.79
65766;SHT31;52915;53.718;19.946;2023-03-23T06:38:14;11.57;72.60
65766;SHT31;52915;53.718;19.946;2023-03-23T06:43:16;11.46;73.00
65766;SHT31;52915;53.718;19.946;2023-03-23T06:48:21;11.51;73.13
65766;SHT31;52915;53.718;19.946;2023-03-23T06:53:24;11.68;72.94
65766;SHT31;52915;53.718;19.946;2023-03-23T06:58:26;11.85;72.51
65766;SHT31;52915;53.718;19.946;2023-03-23T07:03:29;11.90;72.38
65766;SHT31;52915;53.718;19.946;2023-03-23T07:08:33;11.86;72.32
65766;SHT31;52915;53.718;19.946;2023-03-23T07:13:36;11.93;72.25
65766;SHT31;52915;53.718;19.946;2023-03-23T07:18:39;11.97;71.95
65766;SHT31;52915;53.718;19.946;2023-03-23T07:23:42;12.02;71.92
65766;SHT31;52915;53.718;19.946;2023-03-23T07:28:45;12.16;71.31
65766;SHT31;52915;53.718;19.946;2023-03-23T07:33:48;12.34;70.36
65766;SHT31;52915;53.718;19.946;2023-03-23T07:38:51;12.59;69.63
65766;SHT31;52915;53.718;19.946;2023-03-23T07:43:54;12.87;69.08
65766;SHT31;52915;53.718;19.946;2023-03-23T07:48:58;13.39;67.65
65766;SHT31;52915;53.718;19.946;2023-03-23T07:54:02;13.96;66.61
65766;SHT31;52915;53.718;19.946;2023-03-23T07:59:07;13.94;65.50
65766;SHT31;52915;53.718;19.946;2023-03-23T08:04:13;13.72;64.89
65766;SHT31;52915;53.718;19.946;2023-03-23T08:09:17;13.60;64.95
65766;SHT31;52915;53.718;19.946;2023-03-23T08:14:22;13.66;64.76
65766;SHT31;52915;53.718;19.946;2023-03-23T08:19:32;13.81;64.67
65766;SHT31;52915;53.718;19.946;2023-03-23T08:24:38;14.21;64.24
65766;SHT31;52915;53.718;19.946;2023-03-23T08:29:44;14.50;62.97
65766;SHT31;52915;53.718;19.946;2023-03-23T08:34:47;15.03;61.88
65766;SHT31;52915;53.718;19.946;2023-03-23T08:39:54;15.27;60.21
65766;SHT31;52915;53.718;19.946;2023-03-23T08:44:59;15.14;59.94
65766;SHT31;52915;53.718;19.946;2023-03-23T08:50:02;15.76;59.55
65766;SHT31;52915;53.718;19.946;2023-03-23T08:55:10;16.04;57.92
65766;SHT31;52915;53.718;19.946;2023-03-23T09:00:15;16.29;57.51
65766;SHT31;52915;53.718;19.946;2023-03-23T09:05:23;16.56;56.41
65766;SHT31;52915;53.718;19.946;2023-03-23T09:10:29;16.42;56.01
65766;SHT31;52915;53.718;19.946;2023-03-23T09:15:32;16.29;56.56
65766;SHT31;52915;53.718;19.946;2023-03-23T09:20:35;16.12;56.77
65766;SHT31;52915;53.718;19.946;2023-03-23T09:25:39;16.02;57.72
65766;SHT31;52915;53.718;19.946;2023-03-23T09:30:42;16.16;56.99
65766;SHT31;52915;53.718;19.946;2023-03-23T09:35:46;16.34;56.28
65766;SHT31;52915;53.718;19.946;2023-03-23T09:40:51;16.60;55.61
65766;SHT31;52915;53.718;19.946;2023-03-23T09:52:20;16.79;55.78
65766;SHT31;52915;53.718;19.946;2023-03-23T09:57:24;16.67;55.60
65766;SHT31;52915;53.718;19.946;2023-03-23T10:08:25;16.50;55.40
65766;SHT31;52915;53.718;19.946;2023-03-23T10:18:45;16.31;56.15
65766;SHT31;52915;53.718;19.946;2023-03-23T10:24:04;16.19;56.75
65766;SHT31;52915;53.718;19.946;2023-03-23T10:29:23;16.11;57.19
65766;SHT31;52915;53.718;19.946;2023-03-23T10:34:35;16.19;57.46
65766;SHT31;52915;53.718;19.946;2023-03-23T10:39:50;16.21;57.27
65766;SHT31;52915;53.718;19.946;2023-03-23T10:44:59;16.14;57.89
65766;SHT31;52915;53.718;19.946;2023-03-23T10:50:22;16.10;57.92
65766;SHT31;52915;53.718;19.946;2023-03-23T10:55:40;16.02;58.64
65766;SHT31;52915;53.718;19.946;2023-03-23T11:00:49;15.99;59.05
65766;SHT31;52915;53.718;19.946;2023-03-23T11:05:53;16.06;59.15
65766;SHT31;52915;53.718;19.946;2023-03-23T11:11:11;16.07;59.47
65766;SHT31;52915;53.718;19.946;2023-03-23T11:16:25;15.99;59.19
65766;SHT31;52915;53.718;19.946;2023-03-23T11:21:36;15.91;58.76
65766;SHT31;52915;53.718;19.946;2023-03-23T11:26:40;15.78;59.20
65766;SHT31;52915;53.718;19.946;2023-03-23T11:31:49;15.64;59.62
65766;SHT31;52915;53.718;19.946;2023-03-23T11:48:35;15.19;62.35
65766;SHT31;52915;53.718;19.946;2023-03-23T11:55:17;14.87;64.07
65766;SHT31;52915;53.718;19.946;2023-03-23T12:00:22;14.69;64.88
65766;SHT31;52915;53.718;19.946;2023-03-23T12:05:39;14.56;66.00
65766;SHT31;52915;53.718;19.946;2023-03-23T12:11:20;14.43;67.18
65766;SHT31;52915;53.718;19.946;2023-03-23T12:21:55;14.11;69.13
65766;SHT31;52915;53.718;19.946;2023-03-23T12:33:09;13.80;70.33
65766;SHT31;52915;53.718;19.946;2023-03-23T12:44:07;13.64;71.17
65766;SHT31;52915;53.718;19.946;2023-03-23T12:54:39;13.46;72.00
65766;SHT31;52915;53.718;19.946;2023-03-23T13:05:58;13.42;72.63
65766;SHT31;52915;53.718;19.946;2023-03-23T13:11:22;13.48;72.96
65766;SHT31;52915;53.718;19.946;2023-03-23T13:16:42;13.52;73.08
65766;SHT31;52915;53.718;19.946;2023-03-23T13:28:02;13.70;73.00
65766;SHT31;52915;53.718;19.946;2023-03-23T13:33:06;13.75;72.68
65766;SHT31;52915;53.718;19.946;2023-03-23T13:38:19;13.77;72.55
65766;SHT31;52915;53.718;19.946;2023-03-23T13:43:29;13.83;72.25
65766;SHT31;52915;53.718;19.946;2023-03-23T13:48:43;13.85;72.23
65766;SHT31;52915;53.718;19.946;2023-03-23T13:59:30;13.71;72.60
65766;SHT31;52915;53.718;19.946;2023-03-23T14:09:45;13.63;72.96
65766;SHT31;52915;53.718;19.946;2023-03-23T14:14:50;13.49;73.03
65766;SHT31;52915;53.718;19.946;2023-03-23T14:20:04;13.23;73.67
65766;SHT31;52915;53.718;19.946;2023-03-23T14:25:13;13.10;74.18
65766;SHT31;52915;53.718;19.946;2023-03-23T14:30:25;13.08;74.39
65766;SHT31;52915;53.718;19.946;2023-03-23T14:35:40;13.23;74.38
65766;SHT31;52915;53.718;19.946;2023-03-23T14:40:47;13.29;74.22
65766;SHT31;52915;53.718;19.946;2023-03-23T14:45:52;13.38;73.94
65766;SHT31;52915;53.718;19.946;2023-03-23T14:51:01;13.48;73.80
65766;SHT31;52915;53.718;19.946;2023-03-23T14:56:11;13.52;73.77
65766;SHT31;52915;53.718;19.946;2023-03-23T15:06:32;13.56;73.38
65766;SHT31;52915;53.718;19.946;2023-03-23T15:11:39;13.57;73.24
65766;SHT31;52915;53.718;19.946;2023-03-23T15:16:49;13.62;73.11
65766;SHT31;52915;53.718;19.946;2023-03-23T15:22:05;13.61;73.08
65766;SHT31;52915;53.718;19.946;2023-03-23T15:27:26;13.57;73.09
65766;SHT31;52915;53.718;19.946;2023-03-23T15:32:40;13.56;73.00
65766;SHT31;52915;53.718;19.946;2023-03-23T15:38:33;13.52;73.03
65766;SHT31;52915;53.718;19.946;2023-03-23T15:43:23;13.47;72.78
65766;SHT31;52915;53.718;19.946;2023-03-23T15:48:33;13.45;72.58
65766;SHT31;52915;53.718;19.946;2023-03-23T15:54:13;13.38;72.37
65766;SHT31;52915;53.718;19.946;2023-03-23T15:59:17;13.32;72.29
65766;SHT31;52915;53.718;19.946;2023-03-23T16:04:29;13.33;72.14
65766;SHT31;52915;53.718;19.946;2023-03-23T16:09:35;13.28;71.88
65766;SHT31;52915;53.718;19.946;2023-03-23T16:14:41;13.26;71.82
65766;SHT31;52915;53.718;19.946;2023-03-23T16:19:45;13.30;71.68
65766;SHT31;52915;53.718;19.946;2023-03-23T16:24:49;13.36;71.15
65766;SHT31;52915;53.718;19.946;2023-03-23T16:29:53;13.39;70.90
65766;SHT31;52915;53.718;19.946;2023-03-23T16:35:07;13.39;70.78
65766;SHT31;52915;53.718;19.946;2023-03-23T16:40:12;13.36;70.76
65766;SHT31;52915;53.718;19.946;2023-03-23T16:45:20;13.32;70.97
65766;SHT31;52915;53.718;19.946;2023-03-23T16:50:39;13.22;71.25
65766;SHT31;52915;53.718;19.946;2023-03-23T16:55:43;13.13;71.53
65766;SHT31;52915;53.718;19.946;2023-03-23T17:00:51;13.10;71.57
65766;SHT31;52915;53.718;19.946;2023-03-23T17:05:58;13.07;71.54
65766;SHT31;52915;53.718;19.946;2023-03-23T17:11:04;13.08;71.60
65766;SHT31;52915;53.718;19.946;2023-03-23T17:16:08;13.08;71.67
65766;SHT31;52915;53.718;19.946;2023-03-23T17:21:11;13.11;71.76
65766;SHT31;52915;53.718;19.946;2023-03-23T17:26:15;13.10;72.01
65766;SHT31;52915;53.718;19.946;2023-03-23T17:31:19;13.08;72.11
65766;SHT31;52915;53.718;19.946;2023-03-23T17:41:54;12.99;72.33
65766;SHT31;52915;53.718;19.946;2023-03-23T17:46:59;13.00;72.32
65766;SHT31;52915;53.718;19.946;2023-03-23T17:52:05;12.94;72.47
65766;SHT31;52915;53.718;19.946;2023-03-23T17:57:11;12.92;72.71
65766;SHT31;52915;53.718;19.946;2023-03-23T18:02:16;12.93;72.79
65766;SHT31;52915;53.718;19.946;2023-03-23T18:07:22;12.90;72.95
65766;SHT31;52915;53.718;19.946;2023-03-23T18:12:26;12.90;72.99
65766;SHT31;52915;53.718;19.946;2023-03-23T18:17:31;12.83;73.15
65766;SHT31;52915;53.718;19.946;2023-03-23T18:22:39;12.82;73.25
65766;SHT31;52915;53.718;19.946;2023-03-23T18:27:48;12.78;73.29
65766;SHT31;52915;53.718;19.946;2023-03-23T18:32:52;12.72;73.44
65766;SHT31;52915;53.718;19.946;2023-03-23T18:37:58;12.70;73.52
65766;SHT31;52915;53.718;19.946;2023-03-23T18:43:02;12.70;73.57
65766;SHT31;52915;53.718;19.946;2023-03-23T18:53:42;12.71;73.57
65766;SHT31;52915;53.718;19.946;2023-03-23T18:58:46;12.70;73.64
65766;SHT31;52915;53.718;19.946;2023-03-23T19:03:54;12.74;73.57
65766;SHT31;52915;53.718;19.946;2023-03-23T19:08:58;12.69;73.68
65766;SHT31;52915;53.718;19.946;2023-03-23T19:14:02;12.66;73.83
65766;SHT31;52915;53.718;19.946;2023-03-23T19:19:07;12.64;73.99
65766;SHT31;52915;53.718;19.946;2023-03-23T19:24:12;12.63;74.11
65766;SHT31;52915;53.718;19.946;2023-03-23T19:29:17;12.65;74.11
65766;SHT31;52915;53.718;19.946;2023-03-23T19:34:25;12.66;74.15
65766;SHT31;52915;53.718;19.946;2023-03-23T19:39:33;12.76;74.07
65766;SHT31;52915;53.718;19.946;2023-03-23T19:44:38;12.81;73.96
65766;SHT31;52915;53.718;19.946;2023-03-23T19:49:43;12.83;73.82
65766;SHT31;52915;53.718;19.946;2023-03-23T19:54:48;12.86;73.75
65766;SHT31;52915;53.718;19.946;2023-03-23T19:59:53;12.85;73.69
65766;SHT31;52915;53.718;19.946;2023-03-23T20:04:57;12.80;73.65
65766;SHT31;52915;53.718;19.946;2023-03-23T20:10:01;12.75;73.79
65766;SHT31;52915;53.718;19.946;2023-03-23T20:15:08;12.75;73.78
65766;SHT31;52915;53.718;19.946;2023-03-23T20:20:12;12.76;73.71
65766;SHT31;52915;53.718;19.946;2023-03-23T20:25:17;12.73;73.72
65766;SHT31;52915;53.718;19.946;2023-03-23T20:30:22;12.69;74.02
65766;SHT31;52915;53.718;19.946;2023-03-23T20:35:26;12.53;74.54
65766;SHT31;52915;53.718;19.946;2023-03-23T20:40:31;12.31;75.50
65766;SHT31;52915;53.718;19.946;2023-03-23T20:45:35;12.05;76.33
65766;SHT31;52915;53.718;19.946;2023-03-23T20:50:40;11.81;76.87
65766;SHT31;52915;53.718;19.946;2023-03-23T20:55:46;11.65;77.28
65766;SHT31;52915;53.718;19.946;2023-03-23T21:00:53;11.56;77.49
65766;SHT31;52915;53.718;19.946;2023-03-23T21:06:01;11.55;77.59
65766;SHT31;52915;53.718;19.946;2023-03-23T21:11:18;11.52;77.68
65766;SHT31;52915;53.718;19.946;2023-03-23T21:16:26;11.48;77.81
65766;SHT31;52915;53.718;19.946;2023-03-23T21:21:31;11.44;77.82
65766;SHT31;52915;53.718;19.946;2023-03-23T21:26:37;11.48;77.79
65766;SHT31;52915;53.718;19.946;2023-03-23T21:31:42;11.46;77.78
65766;SHT31;52915;53.718;19.946;2023-03-23T21:36:48;11.45;77.86
65766;SHT31;52915;53.718;19.946;2023-03-23T21:41:51;11.40;78.06
65766;SHT31;52915;53.718;19.946;2023-03-23T21:46:56;11.29;78.51
65766;SHT31;52915;53.718;19.946;2023-03-23T21:52:01;11.26;78.74
65766;SHT31;52915;53.718;19.946;2023-03-23T21:57:06;11.19;79.07
65766;SHT31;52915;53.718;19.946;2023-03-23T22:02:11;11.07;79.50
65766;SHT31;52915;53.718;19.946;2023-03-23T22:07:17;11.01;79.72
65766;SHT31;52915;53.718;19.946;2023-03-23T22:12:25;10.99;79.95
65766;SHT31;52915;53.718;19.946;2023-03-23T22:17:29;10.88;80.32
65766;SHT31;52915;53.718;19.946;2023-03-23T22:22:34;10.79;80.72
65766;SHT31;52915;53.718;19.946;2023-03-23T22:27:38;10.69;80.89
65766;SHT31;52915;53.718;19.946;2023-03-23T22:32:42;10.77;80.54
65766;SHT31;52915;53.718;19.946;2023-03-23T22:37:45;10.68;80.69
65766;SHT31;52915;53.718;19.946;2023-03-23T22:42:49;10.63;80.90
65766;SHT31;52915;53.718;19.946;2023-03-23T22:47:55;10.69;80.81
65766;SHT31;52915;53.718;19.946;2023-03-23T22:53:00;10.72;80.78
65766;SHT31;52915;53.718;19.946;2023-03-23T22:58:04;10.67;81.06
65766;SHT31;52915;53.718;19.946;2023-03-23T23:03:08;10.58;81.41
65766;SHT31;52915;53.718;19.946;2023-03-23T23:08:12;10.49;81.75
65766;SHT31;52915;53.718;19.946;2023-03-23T23:13:20;10.44;82.04
65766;SHT31;52915;53.718;19.946;2023-03-23T23:18:25;10.41;82.27
65766;SHT31;52915;53.718;19.946;2023-03-23T23:23:30;10.36;82.46
65766;SHT31;52915;53.718;19.946;2023-03-23T23:28:34;10.27;82.63
65766;SHT31;52915;53.718;19.946;2023-03-23T23:33:39;10.26;82.47
65766;SHT31;52915;53.718;19.946;2023-03-23T23:38:43;10.31;82.10
65766;SHT31;52915;53.718;19.946;2023-03-23T23:43:48;10.28;82.15
65766;SHT31;52915;53.718;19.946;2023-03-23T23:48:52;10.17;82.25
65766;SHT31;52915;53.718;19.946;2023-03-23T23:53:57;10.08;82.58
65766;SHT31;52915;53.718;19.946;2023-03-23T23:59:03;10.07;82.50
